Time;durP1;ratioP1;P1;durP2;ratioP2;P2;SDS_P1;SDS_P2;PMS_P1;PMS_P2;Temp;Humidity;BMP_temperature;BMP_pressure;BME280_temperature;BME280_humidity;BME280_pressure;Samples;Min_cycle;Max_cycle;Signal;HPM_P1;HPM_P2
2022/11/30 00:01:09;;;;;;;2.38;1.42;;;19.00;1.00;;;;;;4823899;29;20121;-36
2022/11/30 00:03:36;;;;;;;2.50;1.42;;;18.90;1.00;;;;;;4823620;29;20066;-37
2022/11/30 00:06:08;;;;;;;2.42;1.02;;;18.90;1.00;;;;;;4823814;29;20057;-36
2022/11/30 00:08:35;;;;;;;2.47;1.55;;;18.90;1.00;;;;;;4823752;29;20050;-36
2022/11/30 00:11:19;;;;;;;2.28;1.58;;;18.80;1.00;;;;;;4823961;29;20142;-36
2022/11/30 00:13:47;;;;;;;2.25;0.90;;;18.80;1.00;;;;;;4823749;29;20057;-36
2022/11/30 00:16:14;;;;;;;2.17;1.20;;;18.80;1.00;;;;;;4807188;29;20427;-36
2022/11/30 00:18:40;;;;;;;2.13;1.20;;;18.80;1.00;;;;;;4823781;29;20046;-36
2022/11/30 00:21:11;;;;;;;3.65;2.33;;;18.80;1.00;;;;;;4823544;29;20454;-36
2022/11/30 00:23:41;;;;;;;2.50;1.38;;;18.80;1.00;;;;;;4823483;29;20121;-36
2022/11/30 00:26:10;;;;;;;3.88;1.85;;;18.70;1.00;;;;;;4823642;29;20517;-36
2022/11/30 00:28:38;;;;;;;2.28;1.38;;;18.70;1.00;;;;;;4823653;29;20050;-36
2022/11/30 00:31:13;;;;;;;2.58;1.42;;;18.70;1.00;;;;;;4823283;29;20064;-36
2022/11/30 00:33:41;;;;;;;2.22;1.52;;;18.70;1.00;;;;;;4822651;29;20058;-36
2022/11/30 00:36:11;;;;;;;2.83;1.50;;;18.70;1.00;;;;;;4823337;29;20053;-36
2022/11/30 00:38:38;;;;;;;2.40;1.42;;;18.60;1.00;;;;;;4823521;29;20061;-34
2022/11/30 00:41:05;;;;;;;2.75;1.58;;;18.60;1.00;;;;;;4823378;29;20046;-36
2022/11/30 00:43:32;;;;;;;2.35;1.23;;;18.60;1.00;;;;;;4823073;29;20081;-36
2022/11/30 00:45:59;;;;;;;3.38;2.08;;;18.60;1.00;;;;;;4823106;29;20050;-36
2022/11/30 00:48:26;;;;;;;2.42;1.52;;;18.60;1.00;;;;;;4823541;29;20048;-37
2022/11/30 00:50:53;;;;;;;2.65;1.65;;;18.50;1.00;;;;;;4823235;29;20055;-36
2022/11/30 00:53:20;;;;;;;3.22;1.48;;;18.50;1.00;;;;;;4823034;29;20081;-36
2022/11/30 00:55:48;;;;;;;2.90;1.58;;;18.50;1.00;;;;;;4823184;29;20054;-36
2022/11/30 00:58:15;;;;;;;2.88;1.38;;;18.50;1.00;;;;;;4823139;29;20559;-36
2022/11/30 01:00:42;;;;;;;3.58;1.75;;;18.40;1.00;;;;;;4806640;29;20105;-36
2022/11/30 01:03:09;;;;;;;4.28;1.70;;;18.40;1.00;;;;;;4822843;29;20495;-36
2022/11/30 01:05:36;;;;;;;1.73;1.10;;;18.40;1.00;;;;;;4822919;29;20095;-36
2022/11/30 01:08:06;;;;;;;3.20;1.38;;;18.40;1.00;;;;;;4823042;29;20058;-36
2022/11/30 01:10:34;;;;;;;2.03;1.35;;;18.40;1.00;;;;;;4823099;29;20050;-36
2022/11/30 01:13:01;;;;;;;2.58;1.85;;;18.40;1.00;;;;;;4822672;29;20050;-36
2022/11/30 01:15:29;;;;;;;2.00;1.27;;;18.30;1.00;;;;;;4822894;29;20126;-36
2022/11/30 01:17:58;;;;;;;3.55;1.85;;;18.30;1.00;;;;;;4823296;29;20042;-36
2022/11/30 01:20:24;;;;;;;3.42;1.90;;;18.30;1.00;;;;;;4823067;29;20054;-36
2022/11/30 01:22:51;;;;;;;2.70;1.70;;;18.30;1.00;;;;;;4822756;29;20129;-36
2022/11/30 01:25:18;;;;;;;3.70;1.40;;;18.30;1.00;;;;;;4822822;29;20047;-36
2022/11/30 01:27:47;;;;;;;3.05;1.50;;;18.30;1.00;;;;;;4822805;29;20125;-35
2022/11/30 01:30:15;;;;;;;3.58;1.92;;;18.20;1.00;;;;;;4822822;29;20080;-36
2022/11/30 01:32:41;;;;;;;2.20;1.60;;;18.30;1.00;;;;;;4822569;29;20077;-35
2022/11/30 01:35:09;;;;;;;4.15;1.75;;;18.20;1.00;;;;;;4822770;29;20054;-34
2022/11/30 01:37:36;;;;;;;4.00;1.80;;;18.20;1.00;;;;;;4822751;29;20070;-34
2022/11/30 01:40:03;;;;;;;2.35;1.60;;;18.20;1.00;;;;;;4822660;29;20046;-34
2022/11/30 01:42:31;;;;;;;2.80;2.13;;;18.20;1.00;;;;;;4822252;29;20517;-34
2022/11/30 01:45:01;;;;;;;2.47;1.90;;;18.20;1.00;;;;;;4825538;29;20047;-34
2022/11/30 01:47:38;;;;;;;2.60;1.73;;;18.20;1.00;;;;;;4826098;29;20046;-34
2022/11/30 01:50:14;;;;;;;3.15;1.45;;;18.10;1.00;;;;;;4826057;29;20103;-34
2022/11/30 01:52:48;;;;;;;3.25;1.45;;;18.10;1.00;;;;;;4825531;29;20087;-34
2022/11/30 01:55:18;;;;;;;2.20;1.55;;;18.10;1.00;;;;;;4825847;29;20058;-34
2022/11/30 01:58:17;;;;;;;3.35;2.10;;;18.10;1.00;;;;;;4825847;29;20502;-35
2022/11/30 02:00:46;;;;;;;2.95;1.63;;;18.10;1.00;;;;;;4804728;29;20145;-36
2022/11/30 02:03:23;;;;;;;2.47;1.65;;;18.00;1.00;;;;;;4825308;29;20586;-36
2022/11/30 02:05:50;;;;;;;2.72;1.55;;;18.00;1.00;;;;;;4825695;29;20047;-36
2022/11/30 02:08:18;;;;;;;2.60;1.77;;;18.00;1.00;;;;;;4825936;29;20050;-36
2022/11/30 02:10:51;;;;;;;7.47;2.00;;;18.00;1.00;;;;;;4825636;29;20050;-36
2022/11/30 02:13:52;;;;;;;2.50;1.60;;;18.00;1.00;;;;;;4825324;29;20050;-36
2022/11/30 02:16:27;;;;;;;2.97;1.55;;;18.00;1.00;;;;;;4825564;29;20111;-36
2022/11/30 02:19:29;;;;;;;3.42;2.08;;;18.00;1.00;;;;;;4825516;29;20064;-36
2022/11/30 02:22:00;;;;;;;2.53;1.60;;;18.00;1.00;;;;;;4825446;29;20050;-35
2022/11/30 02:24:45;;;;;;;2.10;1.27;;;17.90;1.00;;;;;;4825137;29;20050;-34
2022/11/30 02:27:40;;;;;;;3.60;2.10;;;17.90;1.00;;;;;;4825340;29;20099;-36
2022/11/30 02:30:14;;;;;;;3.40;1.92;;;17.90;1.00;;;;;;4825281;29;20415;-36
2022/11/30 02:33:01;;;;;;;2.83;1.67;;;17.90;1.00;;;;;;4825017;29;20468;-36
2022/11/30 02:35:31;;;;;;;2.38;1.60;;;17.90;1.00;;;;;;4825326;29;20088;-36
2022/11/30 02:38:01;;;;;;;3.80;2.00;;;17.90;1.00;;;;;;4825317;29;20047;-36
2022/11/30 02:40:27;;;;;;;3.45;1.65;;;17.90;1.00;;;;;;4825115;29;20479;-36
2022/11/30 02:42:58;;;;;;;2.83;1.85;;;17.80;1.00;;;;;;4824826;29;20046;-36
2022/11/30 02:45:49;;;;;;;2.72;1.70;;;17.80;1.00;;;;;;4825217;29;20046;-36
2022/11/30 02:48:22;;;;;;;2.97;2.08;;;17.80;1.00;;;;;;4824950;29;20453;-36
2022/11/30 02:50:55;;;;;;;;;;;17.80;1.00;;;;;;4825499;29;20457;-36
2022/11/30 02:53:22;;;;;;;3.08;1.70;;;17.70;1.00;;;;;;4824651;29;19928;-36
2022/11/30 02:55:48;;;;;;;2.28;1.65;;;17.80;1.00;;;;;;4823932;29;20054;-36
2022/11/30 02:58:16;;;;;;;3.15;2.00;;;17.70;1.00;;;;;;4824915;29;20046;-36
2022/11/30 03:00:44;;;;;;;4.35;2.80;;;17.70;1.00;;;;;;4824927;29;20104;-34
2022/11/30 03:03:11;;;;;;;3.10;1.55;;;17.70;1.00;;;;;;4824531;29;20055;-36
2022/11/30 03:05:38;;;;;;;4.45;1.95;;;17.70;1.00;;;;;;4834939;24;20501;-36
2022/11/30 03:08:05;;;;;;;3.45;1.90;;;17.70;1.00;;;;;;4806300;29;20042;-36
2022/11/30 03:10:31;;;;;;;4.43;1.73;;;17.70;1.00;;;;;;4806718;29;20126;-36
2022/11/30 03:12:59;;;;;;;3.22;1.67;;;17.70;1.00;;;;;;4806227;29;20063;-36
2022/11/30 03:15:26;;;;;;;3.63;1.95;;;17.60;1.00;;;;;;4806764;29;20078;-36
2022/11/30 03:17:52;;;;;;;3.53;1.88;;;17.60;1.00;;;;;;4806481;29;20495;-36
2022/11/30 03:20:19;;;;;;;2.47;1.65;;;17.60;1.00;;;;;;4806546;29;20138;-36
2022/11/30 03:22:46;;;;;;;2.58;1.85;;;17.60;1.00;;;;;;4806158;29;20053;-36
2022/11/30 03:25:13;;;;;;;2.53;1.90;;;17.60;1.00;;;;;;4809801;29;20411;-36
2022/11/30 03:27:39;;;;;;;2.13;1.60;;;17.60;1.00;;;;;;4822388;29;20134;-36
2022/11/30 03:30:07;;;;;;;3.03;1.90;;;17.60;1.00;;;;;;4821679;29;20067;-36
2022/11/30 03:32:33;;;;;;;2.78;1.58;;;17.60;1.00;;;;;;4823972;29;20102;-36
2022/11/30 03:35:00;;;;;;;2.75;1.80;;;17.50;1.00;;;;;;4824336;29;20050;-36
2022/11/30 03:37:27;;;;;;;3.95;2.00;;;17.50;1.00;;;;;;4820427;29;20053;-36
2022/11/30 03:39:53;;;;;;;6.57;2.15;;;17.50;1.00;;;;;;4824292;29;20117;-36
2022/11/30 03:42:24;;;;;;;2.80;1.73;;;17.50;1.00;;;;;;4823920;29;20392;-36
2022/11/30 03:44:50;;;;;;;3.00;1.90;;;17.50;1.00;;;;;;4824109;29;20046;-36
2022/11/30 03:47:17;;;;;;;2.92;2.03;;;17.50;1.00;;;;;;4824080;29;20080;-36
2022/11/30 03:49:44;;;;;;;3.10;2.08;;;17.50;1.00;;;;;;4824206;29;20047;-36
2022/11/30 03:52:11;;;;;;;3.05;1.75;;;17.50;1.00;;;;;;4823886;29;20047;-36
2022/11/30 03:54:37;;;;;;;3.65;2.15;;;17.50;1.00;;;;;;4823998;29;20099;-36
2022/11/30 03:57:04;;;;;;;2.80;2.10;;;17.40;1.00;;;;;;4823980;29;20112;-36
2022/11/30 03:59:31;;;;;;;3.50;2.28;;;17.50;1.00;;;;;;4823972;29;20129;-36
2022/11/30 04:01:57;;;;;;;3.58;1.75;;;17.40;1.00;;;;;;4823919;29;20054;-36
2022/11/30 04:04:24;;;;;;;3.28;1.90;;;17.40;1.00;;;;;;4822469;29;20054;-36
2022/11/30 04:06:51;;;;;;;8.23;1.90;;;17.40;1.00;;;;;;4823531;29;20057;-36
2022/11/30 04:09:19;;;;;;;2.90;1.85;;;17.40;1.00;;;;;;4822825;29;20039;-36
2022/11/30 04:11:45;;;;;;;3.85;2.20;;;17.30;1.00;;;;;;4823771;29;20088;-36
2022/11/30 04:14:12;;;;;;;3.65;1.63;;;17.30;1.00;;;;;;4823489;29;20050;-36
2022/11/30 04:16:39;;;;;;;4.05;1.98;;;17.30;1.00;;;;;;4823722;29;20050;-36
2022/11/30 04:19:05;;;;;;;3.72;1.90;;;17.30;1.00;;;;;;4823628;29;20129;-36
2022/11/30 04:21:32;;;;;;;3.25;2.05;;;17.30;1.00;;;;;;4823738;29;20443;-37
2022/11/30 04:23:59;;;;;;;2.90;1.80;;;17.30;1.00;;;;;;4823532;29;20133;-37
2022/11/30 04:26:25;;;;;;;2.78;2.17;;;17.30;1.00;;;;;;4823565;29;20047;-37
2022/11/30 04:28:52;;;;;;;3.53;2.42;;;17.30;1.00;;;;;;4823528;29;20043;-37
2022/11/30 04:31:19;;;;;;;3.08;2.03;;;17.30;1.00;;;;;;4822555;29;20058;-37
2022/11/30 04:33:45;;;;;;;1.90;1.45;;;17.20;1.00;;;;;;4823452;29;20471;-37
2022/11/30 04:36:19;;;;;;;3.80;2.33;;;17.20;1.00;;;;;;4822304;29;20058;-37
2022/11/30 04:38:46;;;;;;;;;;;17.30;1.00;;;;;;4823950;29;20054;-37
2022/11/30 04:41:13;;;;;;;3.38;1.80;;;17.20;1.00;;;;;;4823401;29;19974;-37
2022/11/30 04:43:39;;;;;;;3.05;1.90;;;17.20;1.00;;;;;;4823203;29;20133;-37
2022/11/30 04:46:06;;;;;;;3.25;2.13;;;17.20;1.00;;;;;;4823310;29;20042;-37
2022/11/30 04:48:33;;;;;;;3.20;2.17;;;17.20;1.00;;;;;;4823347;29;20058;-37
2022/11/30 04:51:02;;;;;;;2.55;1.95;;;17.20;1.00;;;;;;4823262;29;20121;-37
2022/11/30 04:53:29;;;;;;;3.78;2.05;;;17.20;1.00;;;;;;4823007;29;20054;-37
2022/11/30 04:55:55;;;;;;;3.35;1.75;;;17.10;1.00;;;;;;4823242;29;20106;-37
2022/11/30 04:58:22;;;;;;;5.80;2.40;;;17.10;1.00;;;;;;4823335;29;20060;-37
2022/11/30 05:00:51;;;;;;;2.40;1.67;;;17.10;1.00;;;;;;4823206;29;20115;-37
2022/11/30 05:03:18;;;;;;;3.75;2.38;;;17.10;1.00;;;;;;4822838;29;20046;-37
2022/11/30 05:05:45;;;;;;;2.25;1.58;;;17.10;1.00;;;;;;4823027;29;20038;-37
2022/11/30 05:08:11;;;;;;;4.38;2.20;;;17.10;1.00;;;;;;4823208;29;20133;-37
2022/11/30 05:10:38;;;;;;;2.50;1.80;;;17.10;1.00;;;;;;4814687;29;20042;-37
2022/11/30 05:13:05;;;;;;;3.00;2.05;;;17.10;1.00;;;;;;4816182;29;20450;-37
2022/11/30 05:15:32;;;;;;;2.38;1.75;;;17.10;1.00;;;;;;4812206;29;20094;-37
2022/11/30 05:18:00;;;;;;;4.07;2.10;;;17.10;1.00;;;;;;4805177;29;20085;-37
2022/11/30 05:20:28;;;;;;;4.22;1.77;;;17.10;1.00;;;;;;4808654;29;20461;-37
2022/11/30 05:22:54;;;;;;;3.25;1.88;;;17.00;1.00;;;;;;4808096;29;20054;-37
2022/11/30 05:25:21;;;;;;;4.38;1.92;;;17.00;1.00;;;;;;4808218;29;20047;-37
2022/11/30 05:27:48;;;;;;;4.03;2.72;;;17.00;1.00;;;;;;4808574;29;20547;-40
2022/11/30 05:30:15;;;;;;;7.65;4.65;;;17.00;1.00;;;;;;4808345;29;20074;-37
2022/11/30 05:32:42;;;;;;;8.23;5.28;;;16.90;1.00;;;;;;4807266;29;20047;-37
2022/11/30 05:35:09;;;;;;;9.65;5.30;;;16.90;1.00;;;;;;4818885;29;20050;-37
2022/11/30 05:37:36;;;;;;;6.35;4.45;;;17.00;1.00;;;;;;4825659;29;20054;-37
2022/11/30 05:40:03;;;;;;;6.90;4.10;;;16.90;1.00;;;;;;4825517;29;20062;-38
2022/11/30 05:42:30;;;;;;;6.25;3.63;;;17.00;1.00;;;;;;4826280;29;20663;-37
2022/11/30 05:44:57;;;;;;;6.50;3.63;;;16.90;1.00;;;;;;4826178;29;20103;-37
2022/11/30 05:47:23;;;;;;;5.90;3.58;;;16.90;1.00;;;;;;4826143;29;20459;-37
2022/11/30 05:49:50;;;;;;;5.65;3.75;;;16.90;1.00;;;;;;4826174;29;20050;-38
2022/11/30 05:52:17;;;;;;;6.70;3.30;;;16.90;1.00;;;;;;4825531;29;20050;-37
2022/11/30 05:54:43;;;;;;;18.33;5.78;;;16.90;1.00;;;;;;4819277;29;20057;-38
2022/11/30 05:57:10;;;;;;;5.47;3.55;;;16.90;1.00;;;;;;4824791;29;20038;-37
2022/11/30 05:59:37;;;;;;;5.82;3.28;;;16.90;1.00;;;;;;4811251;29;20057;-37
2022/11/30 06:02:04;;;;;;;6.97;3.13;;;16.90;1.00;;;;;;4823978;29;20046;-37
2022/11/30 06:04:32;;;;;;;6.32;3.15;;;16.90;1.00;;;;;;4825521;29;20050;-37
2022/11/30 06:06:59;;;;;;;6.72;2.92;;;16.90;1.00;;;;;;4809242;29;20096;-37
2022/11/30 06:09:27;;;;;;;4.72;2.85;;;16.90;1.00;;;;;;4824412;29;20089;-37
2022/11/30 06:11:54;;;;;;;7.32;3.53;;;16.80;1.00;;;;;;4825633;29;20053;-37
2022/11/30 06:14:20;;;;;;;6.03;3.40;;;16.80;1.00;;;;;;4825419;29;20051;-37
2022/11/30 06:16:47;;;;;;;5.22;3.35;;;16.80;1.00;;;;;;4825565;29;20517;-37
2022/11/30 06:19:14;;;;;;;6.70;2.80;;;16.80;1.00;;;;;;4825536;29;20069;-37
2022/11/30 06:21:41;;;;;;;7.43;3.35;;;16.70;1.00;;;;;;4825498;29;20071;-37
2022/11/30 06:24:08;;;;;;;5.85;3.25;;;16.80;1.00;;;;;;4825183;29;20050;-37
2022/11/30 06:26:35;;;;;;;5.35;2.75;;;16.70;1.00;;;;;;4809125;29;20578;-37
2022/11/30 06:29:02;;;;;;;3.55;3.10;;;16.70;1.00;;;;;;4825487;29;20050;-37
2022/11/30 06:31:30;;;;;;;4.75;2.58;;;16.70;1.00;;;;;;4825330;29;20043;-37
2022/11/30 06:33:58;;;;;;;5.00;3.00;;;16.70;1.00;;;;;;4825033;29;20050;-37
2022/11/30 06:36:24;;;;;;;4.13;2.50;;;16.70;1.00;;;;;;4823884;29;20060;-37
2022/11/30 06:38:58;;;;;;;3.47;2.60;;;16.70;1.00;;;;;;4825274;29;20146;-37
2022/11/30 06:41:25;;;;;;;6.53;2.60;;;16.70;1.00;;;;;;4825286;29;20114;-37
2022/11/30 06:43:52;;;;;;;5.47;3.25;;;16.70;1.00;;;;;;4824950;29;20039;-37
2022/11/30 06:46:20;;;;;;;3.90;2.47;;;16.60;1.00;;;;;;4824948;29;20049;-37
2022/11/30 06:48:50;;;;;;;3.38;2.35;;;16.60;1.00;;;;;;4825309;29;20093;-37
2022/11/30 06:51:17;;;;;;;4.40;2.92;;;16.60;1.00;;;;;;4825098;29;20039;-37
2022/11/30 06:53:44;;;;;;;7.22;3.13;;;16.60;1.00;;;;;;4823558;29;20211;-37
2022/11/30 06:56:11;;;;;;;4.50;2.55;;;16.60;1.00;;;;;;4825061;29;20108;-37
2022/11/30 06:58:39;;;;;;;4.30;2.47;;;16.60;1.00;;;;;;4825188;29;20058;-37
2022/11/30 07:01:08;;;;;;;5.65;3.00;;;16.60;1.00;;;;;;4824885;29;20066;-37
2022/11/30 07:03:36;;;;;;;4.72;2.72;;;16.60;1.00;;;;;;4824486;29;20079;-37
2022/11/30 07:06:08;;;;;;;4.25;2.58;;;16.60;1.00;;;;;;4824616;29;20417;-37
2022/11/30 07:08:35;;;;;;;4.47;2.85;;;16.60;1.00;;;;;;4824878;29;20110;-37
2022/11/30 07:11:02;;;;;;;4.95;2.30;;;16.60;1.00;;;;;;4808486;29;20114;-37
2022/11/30 07:13:29;;;;;;;6.65;2.78;;;16.60;1.00;;;;;;4824263;29;20047;-37
2022/11/30 07:15:56;;;;;;;3.97;2.67;;;16.60;1.00;;;;;;4824612;29;20491;-38
2022/11/30 07:18:23;;;;;;;5.88;3.40;;;16.50;1.00;;;;;;4823442;29;20046;-37
2022/11/30 07:21:02;;;;;;;3.85;2.83;;;16.60;1.00;;;;;;4823463;29;20072;-37
2022/11/30 07:26:22;;;;;;;4.93;3.10;;;16.50;1.00;;;;;;4824528;29;20057;-37
2022/11/30 07:28:53;;;;;;;6.35;3.03;;;16.50;1.00;;;;;;4808021;29;20042;-37
2022/11/30 07:31:26;;;;;;;6.68;3.50;;;16.50;1.00;;;;;;4824310;29;20077;-37
2022/11/30 07:33:54;;;;;;;4.40;2.85;;;16.50;1.00;;;;;;4822095;29;20502;-37
2022/11/30 07:36:22;;;;;;;5.03;3.08;;;16.50;1.00;;;;;;4816831;29;20054;-37
2022/11/30 07:38:50;;;;;;;5.40;3.00;;;16.50;1.00;;;;;;4802108;29;20052;-37
2022/11/30 07:41:17;;;;;;;6.50;3.40;;;16.50;1.00;;;;;;4823699;29;20046;-37
2022/11/30 07:43:44;;;;;;;5.18;3.33;;;16.50;1.00;;;;;;4823768;29;20054;-37
2022/11/30 07:46:12;;;;;;;6.38;3.15;;;16.50;1.00;;;;;;4824117;29;20075;-37
2022/11/30 07:48:40;;;;;;;5.63;3.22;;;16.50;1.00;;;;;;4824041;29;20107;-37
2022/11/30 07:51:11;;;;;;;5.07;3.28;;;16.50;1.00;;;;;;4807552;29;20055;-37
2022/11/30 07:53:38;;;;;;;4.38;2.83;;;16.40;1.00;;;;;;4823841;29;20456;-37
2022/11/30 07:56:08;;;;;;;7.30;3.60;;;16.40;1.00;;;;;;4824095;29;20456;-37
2022/11/30 07:58:35;;;;;;;5.63;3.40;;;16.40;1.00;;;;;;4823966;29;20494;-37
2022/11/30 08:01:13;;;;;;;5.82;3.67;;;16.40;1.00;;;;;;4823883;29;20078;-37
2022/11/30 08:03:41;;;;;;;4.40;2.95;;;16.40;1.00;;;;;;4823415;29;20061;-37
2022/11/30 08:06:14;;;;;;;4.72;3.33;;;16.40;1.00;;;;;;4823545;29;20070;-37
2022/11/30 08:08:43;;;;;;;5.72;3.28;;;16.40;1.00;;;;;;4823893;29;20084;-37
2022/11/30 08:11:13;;;;;;;5.28;3.25;;;16.40;1.00;;;;;;4822454;29;20046;-37
2022/11/30 08:13:40;;;;;;;5.70;3.33;;;16.40;1.00;;;;;;4823462;29;20074;-37
2022/11/30 08:16:12;;;;;;;4.97;3.08;;;16.40;1.00;;;;;;4823622;29;20085;-37
2022/11/30 08:18:40;;;;;;;5.50;3.42;;;16.40;1.00;;;;;;4823818;29;20047;-37
2022/11/30 08:21:10;;;;;;;4.53;2.70;;;16.40;1.00;;;;;;4822292;29;20137;-37
2022/11/30 08:23:45;;;;;;;4.90;3.17;;;16.40;1.00;;;;;;4823434;29;20129;-37
2022/11/30 08:26:30;;;;;;;4.25;2.72;;;16.30;1.00;;;;;;4807325;29;20050;-37
2022/11/30 08:28:58;;;;;;;4.45;2.60;;;16.30;1.00;;;;;;4807150;29;20077;-37
2022/11/30 08:31:30;;;;;;;6.32;3.63;;;16.30;1.00;;;;;;4823514;29;20044;-37
2022/11/30 08:34:02;;;;;;;5.30;3.23;;;16.30;1.00;;;;;;4823193;29;20043;-37
2022/11/30 08:36:30;;;;;;;6.28;3.05;;;16.30;1.00;;;;;;4823371;29;20843;-37
2022/11/30 08:38:58;;;;;;;6.00;3.47;;;16.30;1.00;;;;;;4823348;29;20069;-37
2022/11/30 08:41:25;;;;;;;4.55;2.97;;;16.30;1.00;;;;;;4823449;29;20495;-37
2022/11/30 08:43:53;;;;;;;7.55;3.20;;;16.30;1.00;;;;;;4822976;29;20499;-37
2022/11/30 08:46:21;;;;;;;4.57;2.70;;;16.30;1.00;;;;;;4822000;29;20053;-37
2022/11/30 08:49:08;;;;;;;6.60;2.92;;;16.30;1.00;;;;;;4821844;29;20042;-36
2022/11/30 08:51:53;;;;;;;6.07;3.80;;;16.30;1.00;;;;;;4823353;29;20061;-36
2022/11/30 08:54:44;;;;;;;5.93;3.20;;;16.30;1.00;;;;;;4822374;29;20051;-36
2022/11/30 08:57:15;;;;;;;5.00;3.55;;;16.30;1.00;;;;;;4823355;29;20464;-36
2022/11/30 08:59:42;;;;;;;7.10;3.55;;;16.30;1.00;;;;;;4821833;29;20054;-37
2022/11/30 09:02:16;;;;;;;5.75;3.15;;;16.20;1.00;;;;;;4823206;29;20410;-37
2022/11/30 09:04:44;;;;;;;5.47;2.90;;;16.30;1.00;;;;;;4821750;29;20085;-37
2022/11/30 09:07:12;;;;;;;6.00;3.78;;;16.20;1.00;;;;;;4823057;29;20101;-36
2022/11/30 09:09:39;;;;;;;5.25;2.92;;;16.20;1.00;;;;;;4821915;29;20050;-37
2022/11/30 09:12:06;;;;;;;4.40;3.03;;;16.20;1.00;;;;;;4821582;29;20443;-36
2022/11/30 09:14:33;;;;;;;5.30;3.20;;;16.20;1.00;;;;;;4822747;29;20129;-36
2022/11/30 09:17:00;;;;;;;4.97;3.10;;;16.20;1.00;;;;;;4822911;29;20526;-36
2022/11/30 09:19:27;;;;;;;5.45;3.47;;;16.20;1.00;;;;;;4822862;29;20501;-36
2022/11/30 09:21:53;;;;;;;5.53;3.25;;;16.20;1.00;;;;;;4822752;29;20229;-36
2022/11/30 09:24:20;;;;;;;5.43;3.30;;;16.20;1.00;;;;;;4822543;29;20047;-36
2022/11/30 09:26:47;;;;;;;6.57;3.47;;;16.20;1.00;;;;;;4822449;29;20042;-36
2022/11/30 09:29:14;;;;;;;7.05;3.15;;;16.20;1.00;;;;;;4822526;29;20578;-36
2022/11/30 09:31:41;;;;;;;5.15;3.63;;;16.20;1.00;;;;;;4821672;29;20058;-36
2022/11/30 09:34:10;;;;;;;4.78;3.15;;;16.20;1.00;;;;;;4822573;29;20038;-36
2022/11/30 09:36:37;;;;;;;6.03;3.65;;;16.20;1.00;;;;;;4822640;29;20495;-37
2022/11/30 09:39:05;;;;;;;4.47;2.80;;;16.20;1.00;;;;;;4822674;29;20046;-36
2022/11/30 09:41:46;;;;;;;4.50;3.45;;;16.20;1.00;;;;;;4822645;29;20085;-36
2022/11/30 09:44:31;;;;;;;4.88;2.95;;;16.20;1.00;;;;;;4805747;29;20050;-36
2022/11/30 09:47:20;;;;;;;3.95;3.03;;;16.20;1.00;;;;;;4822507;29;20054;-36
2022/11/30 09:49:47;;;;;;;5.43;3.00;;;16.20;1.00;;;;;;4822491;29;20042;-36
2022/11/30 09:52:34;;;;;;;6.93;3.60;;;16.20;1.00;;;;;;4806232;29;20080;-37
2022/11/30 09:55:07;;;;;;;4.57;2.88;;;16.20;1.00;;;;;;4821341;29;20515;-36
2022/11/30 09:57:49;;;;;;;4.32;3.00;;;16.10;1.00;;;;;;4822601;29;20437;-36
2022/11/30 10:00:20;;;;;;;5.43;3.30;;;16.10;1.00;;;;;;4822217;29;20050;-36
2022/11/30 10:02:52;;;;;;;5.00;3.08;;;16.10;1.00;;;;;;4822284;29;20456;-36
2022/11/30 10:05:21;;;;;;;6.03;3.45;;;16.10;1.00;;;;;;4824069;29;20051;-38
2022/11/30 10:08:12;;;;;;;5.35;2.90;;;16.10;1.00;;;;;;4825844;29;20129;-37
2022/11/30 10:10:45;;;;;;;5.78;3.58;;;16.10;1.00;;;;;;4825405;29;20038;-37
2022/11/30 10:13:12;;;;;;;;;;;16.10;1.00;;;;;;4825828;29;20048;-37
2022/11/30 10:15:41;;;;;;;6.05;2.80;;;16.10;1.00;;;;;;4825544;29;19925;-37
2022/11/30 10:18:20;;;;;;;6.53;2.92;;;16.10;1.00;;;;;;4825539;29;20056;-37
2022/11/30 10:21:13;;;;;;;6.00;3.50;;;16.10;1.00;;;;;;4825509;29;20058;-36
2022/11/30 10:23:52;;;;;;;8.23;3.20;;;16.10;1.00;;;;;;4825107;29;20101;-37
2022/11/30 10:26:34;;;;;;;4.43;2.78;;;16.10;1.00;;;;;;4825345;29;20138;-37
2022/11/30 10:29:26;;;;;;;5.85;3.17;;;16.10;1.00;;;;;;4824096;29;20399;-37
2022/11/30 10:31:57;;;;;;;4.88;3.30;;;16.10;1.00;;;;;;4825323;29;20042;-37
2022/11/30 10:34:34;;;;;;;4.07;3.03;;;16.10;1.00;;;;;;4825079;29;20099;-37
2022/11/30 10:37:16;;;;;;;5.07;2.50;;;16.10;1.00;;;;;;4825228;29;20542;-37
2022/11/30 10:40:10;;;;;;;5.60;3.33;;;16.10;1.00;;;;;;4824979;29;20051;-37
2022/11/30 10:42:59;;;;;;;5.57;3.53;;;16.10;1.00;;;;;;4825055;29;20517;-37
2022/11/30 10:45:27;;;;;;;5.05;2.60;;;16.10;1.00;;;;;;4825020;29;20051;-37
2022/11/30 10:48:14;;;;;;;5.95;3.05;;;16.10;1.00;;;;;;4825048;29;20043;-37
2022/11/30 10:50:41;;;;;;;6.32;3.03;;;16.10;1.00;;;;;;4825171;29;20471;-37
2022/11/30 10:53:10;;;;;;;5.07;2.88;;;16.10;1.00;;;;;;4823718;29;20103;-37
2022/11/30 10:55:43;;;;;;;3.95;2.47;;;16.10;1.00;;;;;;4824799;29;20046;-37
2022/11/30 10:58:25;;;;;;;4.60;2.70;;;16.10;1.00;;;;;;4825120;29;20081;-37
2022/11/30 11:01:00;;;;;;;4.85;2.75;;;16.10;1.00;;;;;;4808515;29;20418;-37
2022/11/30 11:03:26;;;;;;;4.03;2.85;;;16.10;1.00;;;;;;4824634;29;20047;-37
2022/11/30 11:06:10;;;;;;;5.65;2.95;;;16.10;1.00;;;;;;4824530;29;20487;-38
2022/11/30 11:08:38;;;;;;;4.75;2.70;;;16.10;1.00;;;;;;4824796;29;20087;-37
2022/11/30 11:11:35;;;;;;;4.70;3.00;;;16.10;1.00;;;;;;4824685;29;20073;-37
2022/11/30 11:14:18;;;;;;;4.22;2.78;;;16.10;1.00;;;;;;4823095;29;20155;-37
2022/11/30 11:17:19;;;;;;;4.13;2.47;;;16.10;1.00;;;;;;4823768;29;20053;-37
2022/11/30 11:19:47;;;;;;;5.25;3.25;;;16.00;1.00;;;;;;4808280;29;20057;-37
2022/11/30 11:22:22;;;;;;;4.57;3.13;;;16.10;1.00;;;;;;4824336;29;20054;-37
2022/11/30 11:24:55;;;;;;;5.00;2.80;;;16.10;1.00;;;;;;4824463;29;20054;-37
2022/11/30 11:27:31;;;;;;;6.13;3.15;;;16.10;1.00;;;;;;4824435;29;20042;-37
2022/11/30 11:30:07;;;;;;;5.88;3.80;;;16.00;1.00;;;;;;4824503;29;20141;-37
2022/11/30 11:32:35;;;;;;;5.20;3.20;;;16.10;1.00;;;;;;4824030;29;20410;-37
2022/11/30 11:35:03;;;;;;;4.95;3.17;;;16.10;1.00;;;;;;4824354;29;20050;-37
2022/11/30 11:37:32;;;;;;;5.45;3.22;;;16.10;1.00;;;;;;4824278;29;20098;-37
2022/11/30 11:40:16;;;;;;;4.55;2.85;;;16.10;1.00;;;;;;4824114;29;20057;-37
2022/11/30 11:42:48;;;;;;;5.28;2.92;;;16.10;1.00;;;;;;4824003;29;20050;-37
2022/11/30 11:45:19;;;;;;;5.18;2.83;;;16.10;1.00;;;;;;4824025;29;20047;-37
2022/11/30 11:47:47;;;;;;;12.90;3.67;;;16.10;1.00;;;;;;4824190;29;20108;-37
2022/11/30 11:50:21;;;;;;;5.95;3.38;;;16.00;1.00;;;;;;4823937;29;20056;-37
2022/11/30 11:53:23;;;;;;;5.22;2.55;;;16.00;1.00;;;;;;4807507;29;20050;-37
2022/11/30 11:56:22;;;;;;;5.65;3.67;;;16.10;1.00;;;;;;4823900;29;20496;-37
2022/11/30 11:59:16;;;;;;;4.00;2.53;;;16.10;1.00;;;;;;4823641;29;20129;-37
2022/11/30 12:01:46;;;;;;;6.00;3.58;;;16.00;1.00;;;;;;4823746;29;20050;-37
2022/11/30 12:04:34;;;;;;;5.35;3.50;;;16.00;1.00;;;;;;4823619;29;20054;-37
2022/11/30 12:07:10;;;;;;;7.13;3.55;;;16.00;1.00;;;;;;4823772;29;20054;-37
2022/11/30 12:09:53;;;;;;;5.78;3.60;;;16.00;1.00;;;;;;4823820;29;20055;-37
2022/11/30 12:12:20;;;;;;;5.65;3.30;;;16.00;1.00;;;;;;4806840;29;20060;-37
2022/11/30 12:14:47;;;;;;;5.75;3.70;;;16.00;1.00;;;;;;4823636;29;20515;-37
2022/11/30 12:17:14;;;;;;;7.65;3.85;;;16.00;1.00;;;;;;4823617;29;20042;-37
2022/11/30 12:20:00;;;;;;;5.82;4.15;;;16.00;1.00;;;;;;4823585;29;20046;-37
2022/11/30 12:22:41;;;;;;;6.20;3.65;;;16.00;1.00;;;;;;4823506;29;20465;-37
2022/11/30 12:25:29;;;;;;;6.47;3.55;;;16.00;1.00;;;;;;4823331;29;20050;-37
2022/11/30 12:28:14;;;;;;;5.18;3.15;;;16.00;1.00;;;;;;4823436;29;20054;-37
2022/11/30 12:31:14;;;;;;;8.05;3.80;;;16.00;1.00;;;;;;4823500;29;20509;-37
2022/11/30 12:34:10;;;;;;;5.47;3.72;;;16.00;1.00;;;;;;4814674;29;20466;-37
2022/11/30 12:37:09;;;;;;;6.95;3.78;;;16.00;1.00;;;;;;4823204;29;20053;-37
2022/11/30 12:40:00;;;;;;;6.25;3.97;;;16.00;1.00;;;;;;4823436;29;20050;-37
2022/11/30 12:42:45;;;;;;;5.10;3.33;;;16.00;1.00;;;;;;4823023;29;20552;-37
2022/11/30 12:45:24;;;;;;;6.95;3.95;;;16.00;1.00;;;;;;4821610;29;20068;-37
2022/11/30 12:48:19;;;;;;;5.45;3.58;;;16.00;1.00;;;;;;4823128;29;20125;-37
2022/11/30 12:51:16;;;;;;;7.53;4.43;;;16.00;1.00;;;;;;4823036;29;20061;-37
2022/11/30 12:54:13;;;;;;;7.20;4.30;;;16.00;1.00;;;;;;4821601;29;20056;-37
2022/11/30 12:56:49;;;;;;;6.38;3.75;;;16.00;1.00;;;;;;4823099;29;20047;-37
2022/11/30 12:59:28;;;;;;;5.15;3.45;;;16.00;1.00;;;;;;4822809;29;20058;-37
2022/11/30 13:02:10;;;;;;;8.43;4.85;;;16.00;1.00;;;;;;4822960;29;20054;-37
2022/11/30 13:04:45;;;;;;;7.33;4.03;;;16.00;1.00;;;;;;4823124;29;20058;-37
2022/11/30 13:07:33;;;;;;;7.00;3.97;;;16.00;1.00;;;;;;4806741;29;20062;-37
2022/11/30 13:10:28;;;;;;;7.25;3.75;;;16.00;1.00;;;;;;4823184;29;20556;-37
2022/11/30 13:12:56;;;;;;;6.47;4.07;;;16.00;1.00;;;;;;4820417;29;20535;-37
2022/11/30 13:15:32;;;;;;;7.07;4.55;;;16.00;1.00;;;;;;4822920;29;20058;-37
2022/11/30 13:18:00;;;;;;;6.57;4.28;;;16.00;1.00;;;;;;4822896;29;20103;-37
2022/11/30 13:20:39;;;;;;;7.47;4.43;;;16.00;1.00;;;;;;4806683;29;20074;-37
2022/11/30 13:23:18;;;;;;;5.90;4.13;;;16.00;1.00;;;;;;4822746;29;20571;-37
2022/11/30 13:25:58;;;;;;;7.15;4.57;;;16.00;1.00;;;;;;4822654;29;20051;-37